Time;durP1;ratioP1;P1;durP2;ratioP2;P2;SDS_P1;SDS_P2;PMS_P1;PMS_P2;Temp;Humidity;BMP_temperature;BMP_pressure;BME280_temperature;BME280_humidity;BME280_pressure;Samples;Min_cycle;Max_cycle;Signal;HPM_P1;HPM_P2
2023/03/10 00:01:14;;;;;;;9.80;5.20;;;;;;;8.79;57.66;94383.91;5008279;28;20422;-70
2023/03/10 00:03:39;;;;;;;9.80;4.90;;;;;;;8.73;57.94;94381.72;5008222;28;20995;-69
2023/03/10 00:06:06;;;;;;;7.60;4.40;;;;;;;8.75;57.14;94379.84;5006876;28;20470;-70
2023/03/10 00:08:31;;;;;;;5.70;4.50;;;;;;;8.72;57.08;94375.66;5008082;28;20293;-70
2023/03/10 00:10:57;;;;;;;11.90;4.40;;;;;;;8.63;57.14;94368.44;5008068;28;21345;-69
2023/03/10 00:13:22;;;;;;;8.23;3.63;;;;;;;8.67;57.43;94365.50;5008315;28;20922;-70
2023/03/10 00:15:48;;;;;;;6.53;5.43;;;;;;;8.78;56.83;94362.13;5007821;28;20172;-68
2023/03/10 00:18:13;;;;;;;5.20;3.70;;;;;;;8.74;56.88;94357.22;5007986;28;20326;-70
2023/03/10 00:20:39;;;;;;;6.97;3.97;;;;;;;8.84;56.21;94353.03;5008146;28;20180;-70
2023/03/10 00:23:04;;;;;;;7.10;3.73;;;;;;;8.81;56.31;94342.78;5007727;28;20192;-69
2023/03/10 00:25:30;;;;;;;9.97;4.23;;;;;;;8.73;56.87;94338.09;5007785;28;20179;-69
2023/03/10 00:27:55;;;;;;;5.40;4.00;;;;;;;8.74;56.34;94331.06;5007605;28;20203;-69
2023/03/10 00:30:20;;;;;;;6.93;3.83;;;;;;;8.70;56.68;94327.84;5007721;28;20175;-69
2023/03/10 00:32:46;;;;;;;3.90;3.07;;;;;;;8.68;56.55;94317.50;5007917;28;20282;-69
2023/03/10 00:35:11;;;;;;;6.80;3.73;;;;;;;8.71;56.81;94316.44;5007890;28;20184;-69
2023/03/10 00:37:37;;;;;;;3.93;3.00;;;;;;;8.16;57.94;94320.22;5007615;28;20237;-68
2023/03/10 00:40:13;;;;;;;5.17;4.23;;;;;;;8.26;58.05;94316.03;5009137;28;20188;-68
2023/03/10 00:42:39;;;;;;;6.90;3.93;;;;;;;8.00;59.65;94313.41;5008295;28;20415;-69
2023/03/10 00:45:05;;;;;;;5.13;3.93;;;;;;;8.24;58.79;94310.06;5008173;28;20550;-70
2023/03/10 00:47:30;;;;;;;6.87;4.03;;;;;;;8.28;58.38;94309.75;5007593;28;20513;-69
2023/03/10 00:49:56;;;;;;;17.50;4.83;;;;;;;8.36;58.70;94303.16;5007666;28;20426;-69
2023/03/10 00:52:21;;;;;;;7.77;3.70;;;;;;;8.06;59.87;94299.94;5007808;28;20169;-70
2023/03/10 00:54:46;;;;;;;5.33;3.60;;;;;;;8.24;59.31;94292.63;5007435;28;20249;-70
2023/03/10 00:57:12;;;;;;;6.60;4.37;;;;;;;8.23;58.62;94290.13;5007305;28;20647;-70
2023/03/10 00:59:37;;;;;;;8.67;4.93;;;;;;;8.43;57.98;94280.91;5007714;28;20622;-68
2023/03/10 01:02:04;;;;;;;6.23;3.60;;;;;;;8.48;58.33;94274.44;5007314;28;20207;-69
2023/03/10 01:04:30;;;;;;;7.30;4.57;;;;;;;8.45;58.54;94265.97;5007456;28;20780;-69
2023/03/10 01:06:55;;;;;;;7.90;4.37;;;;;;;8.44;58.21;94262.53;5006894;28;20561;-70
2023/03/10 01:09:21;;;;;;;7.30;4.47;;;;;;;8.42;58.28;94263.59;5007347;28;20846;-70
2023/03/10 01:11:46;;;;;;;8.10;4.70;;;;;;;8.40;58.32;94257.63;5007225;28;20699;-69
2023/03/10 01:14:13;;;;;;;7.37;4.40;;;;;;;8.39;58.78;94258.53;5007161;28;20222;-69
2023/03/10 01:16:39;;;;;;;4.43;3.70;;;;;;;8.36;58.55;94251.75;5007024;28;20168;-70
2023/03/10 01:19:05;;;;;;;7.70;4.20;;;;;;;7.96;60.16;94261.47;5011281;28;20418;-69
2023/03/10 01:21:33;;;;;;;5.30;4.20;;;;;;;7.80;60.49;94252.06;5011296;28;20182;-70
2023/03/10 01:23:59;;;;;;;7.77;4.00;;;;;;;7.96;60.45;94251.03;5011431;28;20947;-71
2023/03/10 01:26:25;;;;;;;3.83;3.43;;;;;;;8.20;58.87;94238.91;5011029;28;20910;-71
2023/03/10 01:28:50;;;;;;;6.43;4.13;;;;;;;8.33;59.30;94225.81;5011410;28;20539;-71
2023/03/10 01:31:17;;;;;;;4.90;3.63;;;;;;;8.36;58.85;94222.16;5011627;28;20239;-70
2023/03/10 01:33:44;;;;;;;6.63;4.77;;;;;;;8.27;58.51;94224.47;5011186;28;20191;-70
2023/03/10 01:36:14;;;;;;;8.20;4.03;;;;;;;8.21;59.11;94219.66;5010844;28;20419;-70
2023/03/10 01:38:40;;;;;;;7.17;3.83;;;;;;;8.30;59.07;94218.19;5011361;28;20414;-70
2023/03/10 01:41:05;;;;;;;4.20;3.27;;;;;;;8.34;58.31;94216.19;5011252;28;20415;-70
2023/03/10 01:43:39;;;;;;;10.23;4.00;;;;;;;8.42;58.57;94211.31;5011160;28;20323;-70
2023/03/10 01:46:26;;;;;;;14.17;5.33;;;;;;;8.32;58.71;94218.94;5010773;28;20180;-70
2023/03/10 01:48:53;;;;;;;8.67;4.07;;;;;;;8.39;59.05;94201.88;5010795;28;20450;-70
2023/03/10 01:51:20;;;;;;;7.53;3.80;;;;;;;8.44;57.87;94205.03;5010723;28;20482;-70
2023/03/10 01:53:45;;;;;;;10.57;4.30;;;;;;;8.67;57.59;94200.78;5010867;28;20435;-70
2023/03/10 01:56:12;;;;;;;7.80;3.80;;;;;;;8.63;58.09;94196.72;5010395;28;20411;-69
2023/03/10 01:58:43;;;;;;;7.97;3.83;;;;;;;8.73;58.10;94196.06;5010666;28;20273;-70
2023/03/10 02:01:13;;;;;;;7.30;4.00;;;;;;;8.77;56.91;94195.72;5010897;28;20406;-70
2023/03/10 02:03:54;;;;;;;12.83;3.83;;;;;;;8.79;57.03;94193.00;5010489;28;20908;-71
2023/03/10 02:06:22;;;;;;;7.27;3.53;;;;;;;8.87;57.13;94201.13;5010405;28;20498;-69
2023/03/10 02:09:00;;;;;;;6.30;3.27;;;;;;;8.91;56.83;94197.34;5010444;28;20463;-71
2023/03/10 02:11:25;;;;;;;8.13;3.73;;;;;;;8.93;56.87;94195.47;5010340;28;20411;-70
2023/03/10 02:13:52;;;;;;;7.20;3.73;;;;;;;8.88;56.06;94189.69;5010488;28;20497;-71
2023/03/10 02:16:18;;;;;;;3.87;3.00;;;;;;;8.86;57.12;94197.69;5010245;28;20182;-68
2023/03/10 02:18:45;;;;;;;8.30;3.10;;;;;;;8.86;56.45;94181.16;5010503;28;20423;-69
2023/03/10 02:21:11;;;;;;;5.03;2.70;;;;;;;8.97;56.62;94196.06;5010677;28;20172;-68
2023/03/10 02:23:54;;;;;;;8.80;3.67;;;;;;;9.06;56.57;94179.69;5008996;28;20454;-69
2023/03/10 02:26:33;;;;;;;5.73;3.00;;;;;;;9.08;56.47;94177.78;5010021;28;20176;-69
2023/03/10 02:29:03;;;;;;;11.53;2.90;;;;;;;9.15;55.76;94180.81;5009139;28;20607;-69
2023/03/10 02:31:30;;;;;;;5.63;2.80;;;;;;;9.10;55.97;94186.38;5010276;28;20846;-69
2023/03/10 02:33:56;;;;;;;4.13;2.70;;;;;;;9.12;56.65;94176.63;5009827;28;20435;-70
2023/03/10 02:36:23;;;;;;;6.47;3.17;;;;;;;9.22;56.21;94192.47;5009821;28;20407;-69
2023/03/10 02:38:49;;;;;;;14.97;3.60;;;;;;;9.28;55.48;94190.25;5010109;28;20440;-70
2023/03/10 02:41:34;;;;;;;5.23;3.07;;;;;;;9.26;55.60;94186.91;5008583;28;20577;-68
2023/03/10 02:44:03;;;;;;;5.43;2.90;;;;;;;9.25;55.72;94200.94;5009954;28;20718;-67
2023/03/10 02:46:29;;;;;;;7.23;3.20;;;;;;;9.23;56.40;94202.00;5009706;28;20442;-68
2023/03/10 02:49:02;;;;;;;8.13;3.70;;;;;;;9.16;56.45;94196.38;5009763;28;20980;-68
2023/03/10 02:51:31;;;;;;;6.63;3.57;;;;;;;9.21;57.30;94199.50;5010225;28;20321;-68
2023/03/10 02:53:59;;;;;;;7.20;3.83;;;;;;;9.20;57.59;94200.44;5009780;28;20772;-69
2023/03/10 02:56:25;;;;;;;5.47;3.80;;;;;;;9.20;57.12;94195.19;5009618;28;20886;-69
2023/03/10 02:58:50;;;;;;;3.80;3.37;;;;;;;9.19;57.79;94198.78;5009720;28;20774;-68
2023/03/10 03:01:16;;;;;;;6.33;3.70;;;;;;;9.16;57.73;94211.25;5009658;28;20427;-70
2023/03/10 03:03:41;;;;;;;5.03;3.50;;;;;;;9.18;58.71;94212.78;5009482;28;20215;-68
2023/03/10 03:06:07;;;;;;;7.20;5.23;;;;;;;9.19;58.42;94216.25;5009312;28;20187;-69
2023/03/10 03:08:33;;;;;;;5.10;3.37;;;;;;;9.06;59.58;94216.31;5009337;28;20288;-69
2023/03/10 03:10:59;;;;;;;6.00;3.50;;;;;;;9.11;58.86;94215.03;5009367;28;20176;-69
2023/03/10 03:13:24;;;;;;;8.03;4.27;;;;;;;9.14;59.18;94224.41;5009244;28;20198;-68
2023/03/10 03:15:50;;;;;;;5.83;3.20;;;;;;;9.12;59.64;94226.34;5009055;28;20179;-70
2023/03/10 03:18:16;;;;;;;4.87;3.27;;;;;;;9.05;59.28;94220.72;5009383;28;20160;-68
2023/03/10 03:20:41;;;;;;;7.10;3.53;;;;;;;9.07;59.80;94218.81;5009460;28;20696;-69
2023/03/10 03:23:07;;;;;;;5.70;2.60;;;;;;;9.22;59.80;94214.25;5009096;28;20196;-69
2023/03/10 03:25:36;;;;;;;3.20;2.03;;;;;;;9.17;61.02;94198.06;5009111;28;20335;-68
2023/03/10 03:28:01;;;;;;;3.43;2.33;;;;;;;9.06;62.23;94198.81;5008894;28;20990;-68
2023/03/10 03:30:28;;;;;;;7.40;2.53;;;;;;;9.17;62.40;94212.94;5009012;28;20407;-68
2023/03/10 03:32:54;;;;;;;4.43;2.37;;;;;;;9.28;62.56;94198.09;5009014;28;20196;-69
2023/03/10 03:35:39;;;;;;;4.40;2.13;;;;;;;9.31;63.81;94194.41;5009169;28;20774;-69
2023/03/10 03:38:05;;;;;;;3.20;1.70;;;;;;;9.39;64.00;94207.75;5008850;28;20765;-68
2023/03/10 03:40:32;;;;;;;2.50;1.77;;;;;;;9.42;64.40;94201.47;5008813;28;20422;-67
2023/03/10 03:42:59;;;;;;;2.40;1.30;;;;;;;9.41;65.50;94197.19;5008888;28;20203;-69
2023/03/10 03:45:26;;;;;;;1.90;1.10;;;;;;;9.54;65.32;94211.88;5008851;28;20423;-70
2023/03/10 03:47:52;;;;;;;3.70;1.93;;;;;;;9.46;65.22;94203.72;5008586;28;20569;-70
2023/03/10 03:50:18;;;;;;;2.43;1.73;;;;;;;9.42;66.70;94212.75;5008887;28;20495;-70
2023/03/10 03:52:44;;;;;;;2.07;1.40;;;;;;;9.43;67.50;94216.22;5007498;28;20196;-70
2023/03/10 03:55:12;;;;;;;1.57;1.30;;;;;;;9.43;67.20;94222.28;5009305;28;20411;-70
2023/03/10 03:57:38;;;;;;;2.57;1.10;;;;;;;9.44;67.78;94208.25;5008852;28;20438;-69
2023/03/10 04:00:07;;;;;;;3.40;1.30;;;;;;;9.43;68.37;94213.63;5008967;28;20411;-68
2023/03/10 04:02:33;;;;;;;1.43;0.97;;;;;;;9.38;69.54;94219.19;5009039;28;20180;-71
2023/03/10 04:04:59;;;;;;;1.67;1.27;;;;;;;9.43;69.50;94211.81;5008946;28;20497;-68
2023/03/10 04:07:25;;;;;;;1.73;1.13;;;;;;;9.42;70.53;94206.69;5008338;28;20600;-68
2023/03/10 04:09:50;;;;;;;3.90;1.10;;;;;;;9.45;70.45;94219.53;5008604;28;20221;-69
2023/03/10 04:12:16;;;;;;;1.70;1.20;;;;;;;9.47;70.15;94201.94;5008564;28;20174;-68
2023/03/10 04:14:41;;;;;;;2.23;1.00;;;;;;;9.46;69.84;94195.88;5008360;28;20216;-70
2023/03/10 04:17:07;;;;;;;2.70;1.40;;;;;;;9.46;69.93;94189.81;5007951;28;20172;-69
2023/03/10 04:19:32;;;;;;;1.60;0.90;;;;;;;9.44;69.35;94184.69;5008544;28;20176;-70
2023/03/10 04:21:57;;;;;;;1.10;0.77;;;;;;;9.42;69.56;94186.56;5008423;28;20176;-70
2023/03/10 04:24:23;;;;;;;3.23;2.80;;;;;;;9.46;69.61;94192.44;5008286;28;20640;-71
2023/03/10 04:26:48;;;;;;;3.90;1.13;;;;;;;9.42;69.45;94183.97;5007896;28;20629;-70
2023/03/10 04:29:14;;;;;;;2.07;0.80;;;;;;;9.44;68.12;94173.38;5008146;28;20235;-69
2023/03/10 04:31:39;;;;;;;1.27;0.90;;;;;;;9.32;68.97;94178.59;5008042;28;20259;-70
2023/03/10 04:34:05;;;;;;;2.23;0.97;;;;;;;9.40;68.68;94180.66;5008143;28;20195;-70
2023/03/10 04:36:31;;;;;;;2.93;0.90;;;;;;;9.38;68.94;94185.16;5008161;28;20180;-70
2023/03/10 04:38:56;;;;;;;2.77;1.00;;;;;;;9.40;68.48;94188.50;5008762;28;20170;-70
2023/03/10 04:41:22;;;;;;;4.67;1.00;;;;;;;9.44;68.78;94176.84;5010094;28;20183;-69
2023/03/10 04:43:48;;;;;;;1.00;0.60;;;;;;;9.42;68.84;94176.09;5009312;28;20282;-69
2023/03/10 04:46:14;;;;;;;1.30;0.80;;;;;;;9.40;68.70;94178.03;5009118;28;20191;-70
2023/03/10 04:48:39;;;;;;;1.20;0.90;;;;;;;9.51;67.94;94174.59;5008405;28;20458;-70
2023/03/10 04:51:08;;;;;;;1.57;0.73;;;;;;;9.46;68.96;94174.94;5007767;28;20222;-70
2023/03/10 04:53:35;;;;;;;4.30;1.50;;;;;;;9.48;68.98;94167.81;5007604;28;20231;-70
2023/03/10 04:56:02;;;;;;;2.90;1.37;;;;;;;9.49;69.02;94164.22;5007662;28;20404;-69
2023/03/10 04:58:28;;;;;;;1.20;0.87;;;;;;;9.51;69.09;94164.13;5008088;28;20785;-70
2023/03/10 05:00:54;;;;;;;1.80;0.80;;;;;;;9.48;69.25;94164.34;5007895;28;20407;-69
2023/03/10 05:03:19;;;;;;;2.43;1.00;;;;;;;9.52;68.84;94156.16;5007731;28;20192;-69
2023/03/10 05:05:45;;;;;;;1.13;0.77;;;;;;;9.49;68.96;94159.00;5007681;28;20203;-69
2023/03/10 05:08:10;;;;;;;3.37;0.80;;;;;;;9.49;69.22;94159.00;5007617;28;20204;-69
2023/03/10 05:10:40;;;;;;;4.33;1.40;;;;;;;9.53;68.88;94165.66;5007482;28;20278;-70
2023/03/10 05:13:11;;;;;;;2.50;0.97;;;;;;;9.51;68.84;94153.66;5007693;28;20191;-69
2023/03/10 05:15:37;;;;;;;2.10;0.80;;;;;;;9.60;68.71;94146.88;5007433;28;20438;-69
2023/03/10 05:18:02;;;;;;;3.53;1.27;;;;;;;9.60;68.90;94139.03;5007460;28;20427;-70
2023/03/10 05:20:28;;;;;;;4.83;0.80;;;;;;;9.59;68.57;94139.97;5007490;28;20499;-70
2023/03/10 05:22:53;;;;;;;2.40;0.90;;;;;;;9.70;68.64;94125.09;5007496;28;20187;-70
2023/03/10 05:25:19;;;;;;;5.03;1.17;;;;;;;9.67;68.28;94127.13;5007553;28;20242;-70
2023/03/10 05:27:44;;;;;;;8.07;2.03;;;;;;;9.72;68.10;94117.13;5007344;28;20204;-70
2023/03/10 05:30:13;;;;;;;12.73;1.60;;;;;;;9.64;68.28;94120.34;5007752;28;20543;-69
2023/03/10 05:32:38;;;;;;;13.90;1.73;;;;;;;9.66;68.74;94110.59;5007591;28;20529;-70
2023/03/10 05:35:04;;;;;;;1.73;0.70;;;;;;;9.67;68.70;94114.03;5007402;28;20415;-69
2023/03/10 05:37:30;;;;;;;6.87;1.40;;;;;;;9.62;69.06;94118.81;5007250;28;20235;-68
2023/03/10 05:39:55;;;;;;;2.73;1.30;;;;;;;9.57;69.14;94120.91;5002767;28;20431;-68
2023/03/10 05:42:21;;;;;;;6.17;1.27;;;;;;;9.67;68.96;94116.66;4995245;28;20169;-68
2023/03/10 05:44:47;;;;;;;4.90;1.13;;;;;;;9.63;68.36;94110.81;4987152;28;20547;-69
2023/03/10 05:47:13;;;;;;;5.83;1.00;;;;;;;9.66;67.87;94110.59;5006162;28;20180;-70
2023/03/10 05:49:39;;;;;;;3.30;0.83;;;;;;;9.64;68.48;94103.81;5006958;28;20631;-69
2023/03/10 05:52:05;;;;;;;3.60;1.13;;;;;;;9.59;68.43;94113.78;5004467;28;20407;-68
2023/03/10 05:54:31;;;;;;;1.90;1.00;;;;;;;9.61;68.28;94097.00;5004485;28;20230;-70
2023/03/10 05:56:56;;;;;;;6.10;1.73;;;;;;;9.61;68.13;94096.16;5004477;28;20780;-69
2023/03/10 05:59:21;;;;;;;3.30;1.40;;;;;;;9.60;68.18;94091.91;5003440;28;20499;-69
2023/03/10 06:01:47;;;;;;;2.47;1.20;;;;;;;9.58;68.00;94080.72;5004365;28;20881;-69
2023/03/10 06:04:12;;;;;;;2.70;1.17;;;;;;;9.59;68.01;94077.97;5005307;28;20204;-70
2023/03/10 06:06:38;;;;;;;3.53;0.90;;;;;;;9.62;68.13;94082.97;5007517;28;20241;-72
2023/03/10 06:09:03;;;;;;;3.40;0.90;;;;;;;9.60;67.71;94078.81;5008044;28;20668;-71
2023/03/10 06:11:29;;;;;;;2.40;1.13;;;;;;;9.69;67.94;94071.06;5007947;28;20176;-70
2023/03/10 06:13:54;;;;;;;3.33;1.70;;;;;;;9.70;67.42;94048.31;5008058;28;20231;-69
2023/03/10 06:16:20;;;;;;;5.70;1.30;;;;;;;9.70;67.31;94041.28;5008124;28;20168;-70
2023/03/10 06:18:46;;;;;;;3.90;1.10;;;;;;;9.77;67.29;94043.44;5006764;28;20176;-68
2023/03/10 06:21:13;;;;;;;7.40;1.33;;;;;;;9.82;66.98;94036.88;5012362;28;20605;-71
2023/03/10 06:23:40;;;;;;;2.47;1.67;;;;;;;9.78;66.83;94032.00;5029024;28;20200;-70
2023/03/10 06:26:08;;;;;;;1.30;0.97;;;;;;;9.80;66.75;94025.69;5028485;28;20468;-70
2023/03/10 06:28:38;;;;;;;3.10;1.30;;;;;;;9.81;67.04;94030.00;5026782;28;20465;-70
2023/03/10 06:31:06;;;;;;;1.77;1.00;;;;;;;9.76;67.64;94019.06;5020204;28;20842;-70
2023/03/10 06:33:32;;;;;;;3.53;1.20;;;;;;;9.68;67.80;94031.91;5025109;28;20458;-70
2023/03/10 06:35:58;;;;;;;1.60;1.20;;;;;;;9.71;67.81;94031.69;5025507;28;20545;-69
2023/03/10 06:38:24;;;;;;;1.37;1.10;;;;;;;9.64;68.14;94031.31;5026684;28;20541;-70
2023/03/10 06:40:49;;;;;;;2.40;1.80;;;;;;;9.72;68.42;94038.56;5025080;28;20187;-68
2023/03/10 06:43:16;;;;;;;4.93;1.67;;;;;;;9.74;67.96;94036.66;5026757;28;20454;-69
2023/03/10 06:45:43;;;;;;;4.40;1.37;;;;;;;9.85;67.68;94027.94;5020745;28;20182;-70
2023/03/10 06:48:09;;;;;;;1.50;1.20;;;;;;;9.98;66.80;94028.66;5031529;28;20458;-68
2023/03/10 06:50:34;;;;;;;4.50;2.00;;;;;;;10.01;65.98;94027.56;5028480;28;20421;-69
2023/03/10 06:53:00;;;;;;;3.97;1.83;;;;;;;10.11;66.07;94012.75;5025645;28;20277;-70
2023/03/10 06:55:25;;;;;;;4.13;1.60;;;;;;;10.33;65.38;94015.38;5030287;28;20222;-69
2023/03/10 06:57:51;;;;;;;8.40;1.90;;;;;;;10.40;64.44;94018.34;5025933;28;20175;-69
2023/03/10 07:00:18;;;;;;;2.20;1.60;;;;;;;10.68;63.69;94021.31;5027612;28;20206;-68
2023/03/10 07:02:44;;;;;;;3.10;1.43;;;;;;;10.86;62.80;94005.84;5021440;28;20183;-70
2023/03/10 07:05:12;;;;;;;1.53;1.27;;;;;;;10.95;62.33;94003.28;5025837;28;20996;-70
2023/03/10 07:07:37;;;;;;;4.80;1.43;;;;;;;11.38;60.46;93990.94;5024538;28;20203;-70
2023/03/10 07:10:05;;;;;;;5.93;1.70;;;;;;;12.01;59.90;93986.34;5027031;28;20452;-69
2023/03/10 07:12:31;;;;;;;15.20;2.57;;;;;;;11.97;58.21;93984.94;5025121;28;20253;-69
2023/03/10 07:14:57;;;;;;;3.20;1.23;;;;;;;12.12;57.68;93988.03;5025962;28;20783;-69
2023/03/10 07:17:22;;;;;;;35.70;3.37;;;;;;;12.58;56.10;93978.63;5025208;28;20422;-69
2023/03/10 07:19:47;;;;;;;4.60;1.60;;;;;;;13.01;55.29;93981.78;5033450;28;20314;-68
2023/03/10 07:22:13;;;;;;;7.00;1.73;;;;;;;14.11;51.92;93976.66;5023920;28;20179;-69
2023/03/10 07:24:38;;;;;;;12.93;2.23;;;;;;;15.76;48.01;93977.00;5024159;28;20665;-69
2023/03/10 07:27:04;;;;;;;3.00;1.57;;;;;;;16.71;44.42;93974.94;5023569;28;20214;-69
2023/03/10 07:29:30;;;;;;;9.50;1.93;;;;;;;16.62;44.45;93962.69;5025977;28;20187;-68
2023/03/10 07:31:56;;;;;;;3.13;1.13;;;;;;;16.06;45.76;93973.00;5029550;28;20213;-70
2023/03/10 07:34:21;;;;;;;3.40;1.30;;;;;;;16.96;43.81;93963.56;5026146;28;20617;-70
2023/03/10 07:36:47;;;;;;;3.70;1.60;;;;;;;15.88;45.60;93959.88;5025303;28;20175;-70
2023/03/10 07:39:12;;;;;;;2.20;1.33;;;;;;;16.16;45.83;93953.50;5027100;28;20178;-69
2023/03/10 07:41:38;;;;;;;5.80;1.20;;;;;;;15.96;45.83;93955.59;5023989;28;20515;-68
2023/03/10 07:44:03;;;;;;;5.77;1.90;;;;;;;14.95;47.48;93961.44;5021779;28;20210;-69
2023/03/10 07:46:29;;;;;;;3.10;1.23;;;;;;;15.37;47.67;93966.84;5021399;28;20274;-69
2023/03/10 07:48:57;;;;;;;2.73;1.60;;;;;;;15.15;47.36;93964.75;5021499;28;20219;-71
2023/03/10 07:51:23;;;;;;;13.27;2.23;;;;;;;14.80;48.71;93971.72;5023276;28;20183;-69
2023/03/10 07:53:48;;;;;;;10.33;1.83;;;;;;;14.93;48.83;93969.53;5020700;28;20515;-69
2023/03/10 07:56:14;;;;;;;8.00;1.27;;;;;;;15.98;45.98;93980.06;5022210;28;20211;-70
2023/03/10 07:58:40;;;;;;;8.77;1.60;;;;;;;15.93;45.94;93975.25;5022863;28;20210;-68
2023/03/10 08:01:07;;;;;;;8.30;1.60;;;;;;;15.39;47.11;93993.13;5025398;28;20172;-67
2023/03/10 08:03:34;;;;;;;7.17;2.10;;;;;;;14.71;48.94;93986.66;5025544;28;20437;-71
2023/03/10 08:06:01;;;;;;;4.07;1.30;;;;;;;14.57;49.86;93989.84;5025046;28;20421;-70
2023/03/10 08:08:26;;;;;;;8.67;1.40;;;;;;;14.38;49.98;94001.34;5025190;28;20461;-70
2023/03/10 08:11:00;;;;;;;5.33;1.20;;;;;;;14.10;50.76;94005.81;5025228;28;20426;-69
2023/03/10 08:13:26;;;;;;;1.43;1.00;;;;;;;13.77;50.70;94005.41;5025670;28;20191;-69
2023/03/10 08:15:51;;;;;;;10.60;1.30;;;;;;;13.51;51.43;94005.22;5026019;28;20555;-71
2023/03/10 08:18:17;;;;;;;43.03;6.43;;;;;;;13.09;52.25;93997.72;5024613;28;20179;-70
2023/03/10 08:20:42;;;;;;;2.30;1.47;;;;;;;12.85;53.66;94014.78;5029951;28;20184;-68
2023/03/10 08:23:07;;;;;;;4.23;1.33;;;;;;;12.76;53.98;94030.59;5021010;28;20701;-70
2023/03/10 08:25:33;;;;;;;7.40;3.60;;;;;;;12.61;53.37;94016.97;5027838;28;20194;-70
2023/03/10 08:27:58;;;;;;;5.97;1.20;;;;;;;12.39;54.02;94029.44;5027954;28;20211;-70
2023/03/10 08:30:25;;;;;;;1.77;1.00;;;;;;;12.16;55.29;94028.00;5027174;28;20660;-69
2023/03/10 08:32:50;;;;;;;1.50;0.80;;;;;;;12.03;55.28;94026.47;5030575;28;20191;-69
2023/03/10 08:35:16;;;;;;;3.33;0.90;;;;;;;11.85;54.88;94023.59;5027895;28;20968;-69
2023/03/10 08:37:41;;;;;;;5.03;1.00;;;;;;;11.80;55.20;94038.13;5026076;28;20262;-69
2023/03/10 08:40:07;;;;;;;2.40;0.90;;;;;;;11.66;55.29;94037.50;5027702;28;20207;-69
2023/03/10 08:42:36;;;;;;;1.83;0.77;;;;;;;11.65;55.54;94048.16;5028377;28;20226;-71
2023/03/10 08:45:03;;;;;;;1.37;0.90;;;;;;;11.53;54.58;94047.41;5027794;28;20445;-70
2023/03/10 08:47:29;;;;;;;1.57;1.30;;;;;;;11.36;55.20;94038.34;5027600;28;20458;-67
2023/03/10 08:49:54;;;;;;;1.10;0.70;;;;;;;11.32;55.23;94034.31;5028186;28;20425;-69
2023/03/10 08:52:20;;;;;;;5.10;0.80;;;;;;;11.28;54.97;94039.94;5028715;28;20259;-68
2023/03/10 08:54:45;;;;;;;3.17;0.80;;;;;;;11.31;55.10;94044.94;5028211;28;20199;-70
2023/03/10 08:57:11;;;;;;;1.67;0.90;;;;;;;11.35;54.96;94030.59;5027586;28;20680;-70
2023/03/10 08:59:36;;;;;;;4.20;0.70;;;;;;;11.27;55.33;94047.00;5027188;28;20180;-68
2023/03/10 09:02:02;;;;;;;0.90;0.70;;;;;;;11.27;54.97;94043.50;5026526;28;20186;-68
2023/03/10 09:04:27;;;;;;;6.37;1.10;;;;;;;11.23;54.57;94056.09;5027306;28;20234;-69
2023/03/10 09:06:52;;;;;;;4.70;0.97;;;;;;;11.26;54.66;94058.44;5034539;28;20947;-69
2023/03/10 09:09:18;;;;;;;1.53;0.70;;;;;;;11.25;55.32;94059.41;5039055;28;20206;-70
2023/03/10 09:11:44;;;;;;;2.27;0.90;;;;;;;11.20;55.52;94058.97;5035711;28;20177;-72
2023/03/10 09:14:10;;;;;;;4.13;0.87;;;;;;;11.13;55.64;94082.28;5043361;28;20643;-70
2023/03/10 09:16:38;;;;;;;1.93;0.83;;;;;;;11.13;55.75;94084.91;5039238;28;20224;-71
2023/03/10 09:19:04;;;;;;;5.93;0.90;;;;;;;10.88;56.36;94093.94;5047771;28;20413;-71
2023/03/10 09:21:31;;;;;;;2.33;0.70;;;;;;;10.88;56.04;94103.63;5035816;28;20437;-69
2023/03/10 09:23:57;;;;;;;1.07;0.80;;;;;;;10.85;56.67;94088.13;5027557;28;20433;-70
2023/03/10 09:26:22;;;;;;;1.20;0.80;;;;;;;10.87;56.71;94108.03;5025224;28;20904;-70
2023/03/10 09:28:49;;;;;;;6.10;1.30;;;;;;;10.78;56.86;94093.88;5024604;28;20640;-69
2023/03/10 09:31:21;;;;;;;3.00;0.80;;;;;;;10.73;57.26;94100.47;5024431;28;20164;-70
2023/03/10 09:33:48;;;;;;;1.90;1.00;;;;;;;10.70;57.17;94109.41;5026576;28;20458;-68
2023/03/10 09:36:13;;;;;;;6.80;1.10;;;;;;;10.67;57.41;94120.13;5026717;28;20512;-71
2023/03/10 09:38:40;;;;;;;4.10;0.80;;;;;;;10.66;56.98;94113.25;5028529;28;20402;-70
2023/03/10 09:41:33;;;;;;;2.00;1.00;;;;;;;10.86;56.57;94116.03;5030542;28;20179;-68
2023/03/10 09:44:25;;;;;;;4.47;1.07;;;;;;;10.85;56.59;94120.44;5024963;28;20851;-70
2023/03/10 09:46:56;;;;;;;2.70;1.00;;;;;;;10.80;56.51;94123.44;5026072;28;20442;-68
2023/03/10 09:49:59;;;;;;;3.73;1.03;;;;;;;11.18;55.23;94116.84;5030998;28;20465;-69
2023/03/10 09:52:45;;;;;;;1.93;0.90;;;;;;;11.35;55.27;94112.81;5020464;28;20733;-69
2023/03/10 09:55:18;;;;;;;2.50;0.80;;;;;;;11.48;54.96;94114.41;5030736;28;20442;-71
2023/03/10 09:57:47;;;;;;;1.93;0.80;;;;;;;11.42;54.48;94113.97;5028956;28;20441;-70
2023/03/10 10:00:20;;;;;;;2.47;0.87;;;;;;;11.53;53.97;94118.31;5028080;28;20444;-68
2023/03/10 10:02:49;;;;;;;1.87;1.00;;;;;;;11.97;52.92;94118.97;5028765;28;20434;-69
2023/03/10 10:05:26;;;;;;;2.50;0.90;;;;;;;12.01;52.95;94122.19;5029767;28;20508;-69
2023/03/10 10:07:56;;;;;;;8.27;2.03;;;;;;;12.10;52.03;94118.78;5023809;28;20519;-71
2023/03/10 10:10:35;;;;;;;2.23;0.93;;;;;;;12.15;52.06;94111.31;5027774;28;20406;-70
2023/03/10 10:13:23;;;;;;;8.60;1.30;;;;;;;12.03;53.00;94128.97;5030197;28;20462;-70
2023/03/10 10:16:17;;;;;;;7.47;1.20;;;;;;;11.80;52.84;94127.44;5038042;28;20426;-70
2023/03/10 10:18:52;;;;;;;7.03;2.07;;;;;;;11.88;52.26;94126.81;5011901;28;21011;-67
2023/03/10 10:21:25;;;;;;;4.50;1.43;;;;;;;11.86;52.13;94106.75;5031781;28;20409;-70
2023/03/10 10:23:53;;;;;;;5.30;1.40;;;;;;;11.99;51.93;94117.06;5024353;28;20449;-68
2023/03/10 10:26:25;;;;;;;3.20;1.27;;;;;;;11.93;52.10;94106.22;5029765;28;20409;-68
2023/03/10 10:29:10;;;;;;;3.60;1.10;;;;;;;11.93;52.04;94096.56;5030702;28;20457;-69
2023/03/10 10:31:36;;;;;;;2.43;1.10;;;;;;;11.92;52.87;94110.66;5034012;28;20425;-70
2023/03/10 10:34:04;;;;;;;7.07;1.43;;;;;;;11.79;52.08;94087.22;5031288;28;21204;-69
2023/03/10 10:36:36;;;;;;;4.43;1.30;;;;;;;11.64;52.95;94096.38;5029616;28;20178;-68
2023/03/10 10:39:18;;;;;;;8.13;1.97;;;;;;;11.79;52.92;94084.59;5029739;28;20413;-69
2023/03/10 10:41:44;;;;;;;10.73;2.63;;;;;;;11.97;52.58;94086.63;5029978;28;20411;-70
2023/03/10 10:44:15;;;;;;;5.43;2.00;;;;;;;12.02;52.10;94089.66;5030042;28;20771;-69
2023/03/10 10:46:52;;;;;;;7.30;2.80;;;;;;;12.06;52.52;94091.91;5029181;28;20545;-70
2023/03/10 10:49:26;;;;;;;7.77;1.87;;;;;;;11.80;52.35;94093.28;5028601;28;20461;-70
2023/03/10 10:52:00;;;;;;;5.77;1.83;;;;;;;11.80;52.15;94088.88;5028951;28;20445;-70
2023/03/10 10:54:36;;;;;;;7.53;1.70;;;;;;;11.75;53.05;94087.59;5008098;28;20449;-69
2023/03/10 10:57:04;;;;;;;2.53;1.47;;;;;;;11.79;52.79;94086.38;5024943;28;20410;-70
2023/03/10 10:59:34;;;;;;;3.90;1.10;;;;;;;11.69;53.18;94088.13;5027329;28;20422;-70
2023/03/10 11:02:03;;;;;;;12.63;3.03;;;;;;;11.76;53.12;94084.00;5026184;28;20462;-69
2023/03/10 11:04:41;;;;;;;12.73;2.40;;;;;;;11.73;53.48;94100.88;5026687;28;20450;-69
2023/03/10 11:07:22;;;;;;;4.90;1.67;;;;;;;11.89;53.09;94079.41;5024658;28;20927;-68
2023/03/10 11:09:48;;;;;;;13.27;2.50;;;;;;;11.95;52.61;94070.13;5023204;28;20465;-69
2023/03/10 11:12:28;;;;;;;1.90;1.10;;;;;;;12.02;52.77;94066.00;5030726;28;20980;-69
2023/03/10 11:15:05;;;;;;;4.37;1.80;;;;;;;12.22;52.25;94069.56;5025531;28;20202;-69
2023/03/10 11:17:37;;;;;;;2.07;1.27;;;;;;;12.37;51.71;94060.28;5024891;28;20430;-70
2023/03/10 11:20:31;;;;;;;6.83;1.53;;;;;;;12.57;51.37;94070.88;5033371;28;20791;-70
2023/03/10 11:23:28;;;;;;;7.20;1.00;;;;;;;12.58;50.54;94069.88;5024579;28;20520;-69
2023/03/10 11:26:31;;;;;;;4.03;0.97;;;;;;;12.64;50.05;94064.09;5022751;28;21013;-69
2023/03/10 11:29:03;;;;;;;2.03;1.20;;;;;;;12.54;50.83;94058.78;5030546;28;20551;-69
2023/03/10 11:31:49;;;;;;;14.37;1.90;;;;;;;12.52;50.45;94070.41;5021643;28;20438;-70
2023/03/10 11:34:19;;;;;;;7.10;1.60;;;;;;;12.55;51.57;94068.38;5027056;28;20541;-70
2023/03/10 11:37:08;;;;;;;1.50;0.90;;;;;;;12.43;51.34;94074.72;5027866;28;20511;-70
2023/03/10 11:39:42;;;;;;;4.00;1.17;;;;;;;12.43;51.97;94061.56;5029146;28;20418;-69
2023/03/10 11:42:33;;;;;;;4.73;0.90;;;;;;;12.37;51.78;94062.94;5026142;28;20561;-69